Time;durP1;ratioP1;P1;durP2;ratioP2;P2;SDS_P1;SDS_P2;PMS_P1;PMS_P2;Temp;Humidity;BMP_temperature;BMP_pressure;BME280_temperature;BME280_humidity;BME280_pressure;Samples;Min_cycle;Max_cycle;Signal;HPM_P1;HPM_P2
2021/01/19 05:17:42;;;;;;;1.20;1.20;;;4.70;99.90;;;;;;4896530;29;20231;-78
2021/01/19 05:20:12;;;;;;;1.20;1.20;;;4.70;99.90;;;;;;4899041;29;20672;-79
2021/01/19 05:22:40;;;;;;;1.10;1.10;;;4.80;99.90;;;;;;4898989;29;20214;-77
2021/01/19 05:25:08;;;;;;;1.20;1.20;;;4.70;99.90;;;;;;4898642;29;20212;-78
2021/01/19 05:27:35;;;;;;;1.20;1.20;;;4.80;99.90;;;;;;4898653;29;20617;-80
2021/01/19 05:30:05;;;;;;;1.10;1.10;;;4.70;99.90;;;;;;4900418;29;20571;-78
2021/01/19 05:32:37;;;;;;;1.10;1.10;;;4.70;99.90;;;;;;4900090;29;20221;-78
2021/01/19 05:35:14;;;;;;;1.00;1.00;;;4.70;99.90;;;;;;4899155;29;20585;-79
2021/01/19 05:37:42;;;;;;;1.20;1.20;;;4.80;99.90;;;;;;4900063;29;20259;-78
2021/01/19 05:40:10;;;;;;;1.23;1.23;;;4.80;99.90;;;;;;4900613;29;20232;-78
2021/01/19 05:42:38;;;;;;;1.10;1.10;;;4.70;99.90;;;;;;4900537;29;20267;-78
2021/01/19 05:45:09;;;;;;;1.20;1.20;;;4.80;99.90;;;;;;4897226;29;20251;-79
2021/01/19 05:47:38;;;;;;;1.20;1.20;;;4.80;99.90;;;;;;4899046;29;20199;-78
2021/01/19 05:50:09;;;;;;;1.03;1.03;;;4.70;99.90;;;;;;4899228;29;20211;-78
2021/01/19 05:52:37;;;;;;;1.20;1.20;;;5.30;99.90;;;;;;4899172;29;20214;-78
2021/01/19 05:55:06;;;;;;;1.00;1.00;;;4.70;99.90;;;;;;4899066;29;20235;-79
2021/01/19 05:57:34;;;;;;;1.10;1.10;;;5.20;99.90;;;;;;4899259;29;20234;-79
2021/01/19 06:00:04;;;;;;;1.20;1.20;;;4.80;99.90;;;;;;4899521;29;20212;-79
2021/01/19 06:02:41;;;;;;;1.10;1.10;;;4.80;99.90;;;;;;4899007;29;20208;-79
2021/01/19 06:05:10;;;;;;;1.10;1.10;;;4.80;99.90;;;;;;4893737;29;20220;-78
2021/01/19 06:07:39;;;;;;;1.10;1.10;;;4.80;99.90;;;;;;4880767;29;20212;-79
2021/01/19 06:10:10;;;;;;;1.30;1.30;;;4.70;99.90;;;;;;4882967;29;20260;-79
2021/01/19 06:12:38;;;;;;;1.10;1.10;;;4.70;99.90;;;;;;4887017;29;20216;-78
2021/01/19 06:15:06;;;;;;;1.20;1.20;;;4.60;99.90;;;;;;4885402;29;20212;-78
2021/01/19 06:17:35;;;;;;;1.20;1.20;;;4.60;99.90;;;;;;4885465;29;20276;-78
2021/01/19 06:20:04;;;;;;;1.30;1.30;;;4.70;99.90;;;;;;4886597;29;20673;-78
2021/01/19 06:22:31;;;;;;;1.30;1.30;;;4.60;99.90;;;;;;4886673;29;20877;-78
2021/01/19 06:24:59;;;;;;;1.20;1.20;;;4.70;99.90;;;;;;4882972;29;20211;-78
2021/01/19 06:27:29;;;;;;;1.20;1.20;;;4.70;99.90;;;;;;4885196;29;20232;-78
2021/01/19 06:30:07;;;;;;;1.10;1.10;;;4.60;99.90;;;;;;4885665;29;20208;-78
2021/01/19 06:32:36;;;;;;;1.10;1.10;;;4.70;99.90;;;;;;4890286;29;20561;-77
2021/01/19 06:35:15;;;;;;;1.27;1.27;;;4.70;99.90;;;;;;4881998;29;20216;-79
2021/01/19 06:37:42;;;;;;;1.10;1.10;;;4.90;99.90;;;;;;4879700;29;20647;-77
2021/01/19 06:40:12;;;;;;;1.10;1.10;;;4.60;99.90;;;;;;4879936;29;20212;-77
2021/01/19 06:42:39;;;;;;;1.13;1.13;;;4.80;99.90;;;;;;4879094;29;20290;-79
2021/01/19 13:01:33;;;;;;;1.20;1.20;;;5.60;99.90;;;;;;5378595;23;20231;-72
2021/01/19 13:04:00;;;;;;;0.90;0.90;;;5.80;99.90;;;;;;4917446;29;20233;-71
2021/01/19 13:06:27;;;;;;;1.00;1.00;;;5.80;99.90;;;;;;4917421;29;20217;-71
2021/01/19 13:08:54;;;;;;;1.13;1.13;;;5.80;99.90;;;;;;4917323;29;20743;-71
2021/01/19 13:11:21;;;;;;;1.10;1.10;;;5.90;99.90;;;;;;4917519;29;20223;-71
2021/01/19 13:13:48;;;;;;;1.10;1.10;;;5.80;99.90;;;;;;4917233;29;20731;-71
2021/01/19 13:16:15;;;;;;;1.20;1.20;;;6.00;99.90;;;;;;4917923;29;20203;-71
2021/01/19 13:18:43;;;;;;;1.00;1.00;;;6.20;99.90;;;;;;4916337;29;20703;-71
2021/01/19 13:21:10;;;;;;;1.10;1.10;;;6.40;99.90;;;;;;4917145;29;20227;-71
2021/01/19 13:23:37;;;;;;;1.10;1.10;;;6.40;99.90;;;;;;4917101;29;20211;-71
2021/01/19 13:26:03;;;;;;;1.00;1.00;;;6.40;99.90;;;;;;4915678;29;20214;-71
2021/01/19 13:28:30;;;;;;;1.20;1.20;;;6.60;99.90;;;;;;4915505;29;20206;-72
2021/01/19 13:30:57;;;;;;;1.07;1.07;;;6.40;99.90;;;;;;4910590;29;20274;-71
2021/01/19 13:33:28;;;;;;;1.17;1.17;;;6.10;99.90;;;;;;4914738;29;20262;-71
2021/01/19 13:35:56;;;;;;;1.00;1.00;;;6.00;99.90;;;;;;4916727;29;20698;-71
2021/01/19 13:38:23;;;;;;;1.00;1.00;;;6.10;99.90;;;;;;4916306;29;20708;-71
2021/01/19 13:40:50;;;;;;;0.90;0.90;;;6.10;99.90;;;;;;4916647;29;20249;-71
2021/01/19 13:43:17;;;;;;;1.30;1.30;;;5.80;99.90;;;;;;4916595;29;20214;-71
2021/01/19 13:45:44;;;;;;;1.10;1.10;;;5.80;99.90;;;;;;4916405;29;20746;-71
2021/01/19 13:48:11;;;;;;;1.00;1.00;;;5.70;99.90;;;;;;4926204;29;20202;-70
2021/01/19 13:50:39;;;;;;;1.00;1.00;;;5.60;99.90;;;;;;4935545;29;20304;-71
2021/01/19 13:53:06;;;;;;;1.00;1.00;;;5.40;99.90;;;;;;4935265;29;20238;-71
2021/01/19 13:55:33;;;;;;;1.10;1.10;;;5.20;99.90;;;;;;4934607;29;20736;-70
2021/01/19 13:58:00;;;;;;;1.20;1.20;;;5.10;99.90;;;;;;4935013;29;20739;-70
2021/01/19 14:00:28;;;;;;;1.20;1.20;;;4.90;99.90;;;;;;4934739;29;20210;-70
2021/01/19 14:02:55;;;;;;;1.10;1.10;;;4.80;99.90;;;;;;4918039;29;20207;-70
2021/01/19 14:05:22;;;;;;;1.13;1.13;;;4.80;99.90;;;;;;4916030;29;20226;-71
2021/01/19 14:07:49;;;;;;;1.10;1.10;;;4.70;99.90;;;;;;4915886;29;20251;-73
2021/01/19 14:10:17;;;;;;;1.20;1.20;;;4.70;99.90;;;;;;4915893;29;20226;-72
2021/01/19 14:12:44;;;;;;;1.23;1.23;;;4.80;99.90;;;;;;4916640;29;20258;-73
2021/01/19 14:15:12;;;;;;;1.20;1.20;;;4.70;99.90;;;;;;4915645;29;20238;-73
2021/01/19 14:17:39;;;;;;;1.10;1.10;;;4.80;99.90;;;;;;4915877;29;20648;-72
2021/01/19 14:20:07;;;;;;;1.10;1.10;;;4.80;99.90;;;;;;4915783;29;20671;-73
2021/01/19 14:22:34;;;;;;;1.20;1.20;;;4.70;99.90;;;;;;4916109;29;20273;-73
2021/01/19 14:25:01;;;;;;;1.10;1.10;;;4.70;99.90;;;;;;4916141;29;20203;-73
2021/01/19 14:27:29;;;;;;;1.30;1.30;;;4.70;99.90;;;;;;4915710;29;20202;-73
2021/01/19 14:29:55;;;;;;;1.20;1.20;;;4.70;99.90;;;;;;4915567;29;20266;-72
2021/01/19 14:32:23;;;;;;;1.10;1.10;;;4.70;99.90;;;;;;4915589;29;20256;-72
2021/01/19 14:34:51;;;;;;;1.00;1.00;;;4.70;99.90;;;;;;4916000;29;20207;-73
2021/01/19 14:37:28;;;;;;;1.00;1.00;;;4.80;99.90;;;;;;4915388;29;20218;-73
2021/01/19 14:39:55;;;;;;;1.00;1.00;;;4.80;99.90;;;;;;4915160;29;20199;-73
2021/01/19 14:42:22;;;;;;;1.00;1.00;;;4.70;99.90;;;;;;4912959;29;20694;-72
2021/01/19 14:44:52;;;;;;;1.20;1.20;;;4.70;99.90;;;;;;4915308;29;20254;-73
2021/01/19 14:47:19;;;;;;;1.10;1.10;;;4.70;99.90;;;;;;4915518;29;20207;-75
2021/01/19 14:49:47;;;;;;;1.20;1.20;;;4.80;99.90;;;;;;4912814;29;20206;-74
2021/01/19 14:52:13;;;;;;;1.10;1.10;;;4.80;99.90;;;;;;4915666;29;20222;-74
2021/01/19 14:54:41;;;;;;;1.20;1.20;;;4.80;99.90;;;;;;4915115;29;20199;-74
2021/01/19 14:57:09;;;;;;;1.00;1.00;;;4.80;99.90;;;;;;4915508;29;20234;-73
2021/01/19 14:59:36;;;;;;;1.10;1.10;;;4.70;99.90;;;;;;4915341;29;20290;-75
2021/01/19 15:02:05;;;;;;;1.00;1.00;;;4.80;99.90;;;;;;4914011;29;20234;-74
2021/01/19 15:04:32;;;;;;;1.10;1.10;;;4.90;99.90;;;;;;4913115;29;20293;-75
2021/01/19 15:07:00;;;;;;;1.07;1.07;;;4.90;99.90;;;;;;4916860;29;20255;-74
2021/01/19 15:09:28;;;;;;;1.13;1.13;;;5.00;99.90;;;;;;4918070;29;20210;-73
2021/01/19 15:11:56;;;;;;;1.10;1.10;;;4.90;99.90;;;;;;4918696;29;20301;-72
2021/01/19 15:14:25;;;;;;;1.10;1.10;;;4.90;99.90;;;;;;4918498;29;20624;-72
2021/01/19 15:16:52;;;;;;;1.10;1.10;;;4.80;99.90;;;;;;4918267;29;20672;-72
2021/01/19 15:19:21;;;;;;;1.20;1.20;;;4.80;99.90;;;;;;4917984;29;20234;-72
2021/01/19 15:21:48;;;;;;;1.10;1.10;;;4.70;99.90;;;;;;4918178;29;20278;-72
2021/01/19 15:24:17;;;;;;;1.23;1.23;;;4.80;99.90;;;;;;4918537;29;20676;-72
2021/01/19 15:26:46;;;;;;;1.30;1.30;;;4.70;99.90;;;;;;4917940;29;20552;-72
2021/01/19 15:29:13;;;;;;;1.30;1.30;;;4.60;99.90;;;;;;4918231;29;20278;-72
2021/01/19 15:31:44;;;;;;;1.10;1.10;;;4.60;99.90;;;;;;4917652;29;20568;-73
2021/01/19 15:34:12;;;;;;;1.20;1.20;;;4.60;99.90;;;;;;4917026;29;20211;-71
2021/01/19 15:36:40;;;;;;;1.10;1.10;;;4.60;99.90;;;;;;4915456;29;20227;-72
2021/01/19 15:39:08;;;;;;;1.37;1.37;;;4.70;99.90;;;;;;4918080;29;20234;-72
2021/01/19 15:41:35;;;;;;;1.30;1.30;;;4.70;99.90;;;;;;4917953;29;20234;-73
2021/01/19 15:44:02;;;;;;;1.20;1.20;;;4.70;99.90;;;;;;4917739;29;20210;-72
2021/01/19 15:46:30;;;;;;;1.00;1.00;;;4.80;99.90;;;;;;4918181;29;20206;-72
2021/01/19 15:48:58;;;;;;;1.10;1.10;;;4.70;99.90;;;;;;4917607;29;20424;-73
2021/01/19 15:51:26;;;;;;;1.10;1.10;;;4.80;99.90;;;;;;4917755;29;20231;-73
2021/01/19 15:53:54;;;;;;;1.10;1.10;;;4.90;99.90;;;;;;4917605;29;20198;-72
2021/01/19 15:56:25;;;;;;;1.10;1.10;;;4.90;99.90;;;;;;4917226;29;20668;-73
2021/01/19 15:58:53;;;;;;;1.10;1.10;;;5.00;99.90;;;;;;4923412;29;20274;-73
2021/01/19 16:01:20;;;;;;;1.20;1.20;;;5.00;99.90;;;;;;4922889;29;20229;-72
2021/01/19 16:03:48;;;;;;;1.30;1.30;;;;;;;;;;4917080;29;20203;-73
2021/01/19 16:06:15;;;;;;;1.10;1.10;;;4.90;99.90;;;;;;4914504;29;20234;-72
2021/01/19 16:08:42;;;;;;;1.10;1.10;;;4.90;99.90;;;;;;4917361;29;20206;-71
2021/01/19 16:11:09;;;;;;;1.20;1.20;;;4.90;99.90;;;;;;4917861;29;20218;-72
2021/01/19 16:13:39;;;;;;;1.17;1.17;;;4.90;99.90;;;;;;4917042;29;20203;-72
2021/01/19 16:16:06;;;;;;;1.20;1.20;;;4.90;99.90;;;;;;4917237;29;20723;-73
2021/01/19 16:18:33;;;;;;;1.17;1.17;;;4.90;99.90;;;;;;4916542;29;20223;-73
2021/01/19 16:21:01;;;;;;;1.10;1.10;;;4.90;99.90;;;;;;4916871;29;20233;-72
2021/01/19 16:23:28;;;;;;;1.10;1.10;;;4.80;99.90;;;;;;4916753;29;20199;-73
2021/01/19 16:25:56;;;;;;;1.23;1.23;;;4.70;99.90;;;;;;4914117;29;20210;-72
2021/01/19 16:28:24;;;;;;;1.20;1.20;;;4.60;99.90;;;;;;4915944;29;20225;-73
2021/01/19 16:30:52;;;;;;;1.20;1.20;;;4.60;99.90;;;;;;4916291;29;20308;-73
2021/01/19 16:33:20;;;;;;;1.20;1.20;;;4.60;99.90;;;;;;4916455;29;20207;-72
2021/01/19 16:35:48;;;;;;;1.07;1.07;;;4.60;99.90;;;;;;4915544;29;20213;-72
2021/01/19 16:38:15;;;;;;;1.10;1.10;;;4.60;99.90;;;;;;4916988;29;20222;-72
2021/01/19 16:40:42;;;;;;;1.10;1.10;;;4.70;99.90;;;;;;4916874;29;20234;-72
2021/01/19 16:43:09;;;;;;;1.20;1.20;;;4.70;99.90;;;;;;4916614;29;20211;-72
2021/01/19 16:45:36;;;;;;;1.20;1.20;;;4.60;99.90;;;;;;4914239;29;20203;-71
2021/01/19 16:48:04;;;;;;;1.13;1.13;;;4.60;99.90;;;;;;4916681;29;20202;-72
2021/01/19 16:50:32;;;;;;;1.20;1.20;;;4.70;99.90;;;;;;4917499;29;20268;-74
2021/01/19 16:52:59;;;;;;;1.20;1.20;;;4.70;99.90;;;;;;4917424;29;20210;-74
2021/01/19 16:55:28;;;;;;;1.13;1.13;;;4.70;99.90;;;;;;4925167;29;20199;-70
2021/01/19 16:57:55;;;;;;;1.20;1.20;;;4.80;99.90;;;;;;4936036;29;20692;-71
2021/01/19 17:00:23;;;;;;;1.10;1.10;;;4.90;99.90;;;;;;4936513;29;20241;-72
2021/01/19 17:02:51;;;;;;;1.27;1.27;;;4.80;99.90;;;;;;4936712;29;20210;-73
2021/01/19 17:05:18;;;;;;;1.20;1.20;;;4.80;99.90;;;;;;4936519;29;20201;-73
2021/01/19 17:07:45;;;;;;;1.10;1.10;;;4.80;99.90;;;;;;4936222;29;20247;-72
2021/01/19 17:10:12;;;;;;;1.20;1.20;;;4.80;99.90;;;;;;4935993;29;20762;-73
2021/01/19 17:12:39;;;;;;;1.20;1.20;;;4.80;99.90;;;;;;4936467;29;20206;-74
2021/01/19 17:15:07;;;;;;;1.10;1.10;;;4.80;99.90;;;;;;4932933;29;20270;-73
2021/01/19 17:17:35;;;;;;;1.10;1.10;;;4.80;99.90;;;;;;4906599;29;20209;-73
2021/01/19 17:20:03;;;;;;;1.00;1.00;;;4.80;99.90;;;;;;4905980;29;20252;-73
2021/01/19 17:22:30;;;;;;;1.20;1.20;;;4.80;99.90;;;;;;4911050;29;20264;-74
2021/01/19 17:24:57;;;;;;;1.17;1.17;;;4.80;99.90;;;;;;4902547;29;20259;-72
2021/01/19 17:27:24;;;;;;;1.27;1.27;;;4.90;99.90;;;;;;4898179;29;20636;-72
2021/01/19 17:29:51;;;;;;;1.17;1.17;;;4.80;99.90;;;;;;4906801;29;20702;-74
2021/01/19 17:32:18;;;;;;;1.10;1.10;;;4.90;99.90;;;;;;4907370;29;20227;-74
2021/01/19 17:34:45;;;;;;;1.20;1.20;;;4.90;99.90;;;;;;4907282;29;20302;-73
2021/01/19 17:37:13;;;;;;;1.20;1.20;;;4.80;99.90;;;;;;4911321;29;20288;-74
2021/01/19 17:39:40;;;;;;;1.20;1.20;;;4.90;99.90;;;;;;4907541;29;20222;-74
2021/01/19 17:42:06;;;;;;;1.10;1.10;;;4.90;99.90;;;;;;4905357;29;20576;-73
2021/01/19 17:44:33;;;;;;;1.10;1.10;;;5.00;99.90;;;;;;4913280;29;20517;-74
2021/01/19 17:47:00;;;;;;;1.20;1.20;;;5.00;99.90;;;;;;4909950;29;20203;-73
2021/01/19 17:49:27;;;;;;;1.10;1.10;;;5.40;99.90;;;;;;4907985;29;20195;-73
2021/01/19 17:51:54;;;;;;;1.10;1.10;;;5.10;99.90;;;;;;4913944;29;20219;-74
2021/01/19 17:54:23;;;;;;;1.20;1.20;;;5.10;99.90;;;;;;4913129;29;20293;-73
2021/01/19 17:56:53;;;;;;;1.00;1.00;;;5.20;99.90;;;;;;4906927;29;20199;-73
2021/01/19 17:59:20;;;;;;;1.10;1.10;;;5.10;99.90;;;;;;4914711;29;20282;-73
2021/01/19 18:01:49;;;;;;;1.30;1.30;;;5.20;99.90;;;;;;4915242;29;20309;-75
2021/01/19 18:04:18;;;;;;;1.20;1.20;;;5.20;99.90;;;;;;4915339;29;20234;-73
2021/01/19 18:06:49;;;;;;;1.20;1.20;;;5.20;99.90;;;;;;4916064;29;20198;-73
2021/01/19 18:09:19;;;;;;;1.10;1.10;;;5.20;99.90;;;;;;4914351;29;20199;-72
2021/01/19 18:11:48;;;;;;;1.20;1.20;;;5.20;99.90;;;;;;4913958;29;20593;-73
2021/01/19 18:14:17;;;;;;;1.10;1.10;;;5.20;99.90;;;;;;4915241;29;20206;-73
2021/01/19 18:16:46;;;;;;;1.20;1.20;;;5.20;99.90;;;;;;4916157;29;20207;-74
2021/01/19 18:19:15;;;;;;;1.20;1.20;;;5.20;99.90;;;;;;4916150;29;20290;-77
2021/01/19 18:21:43;;;;;;;1.20;1.20;;;5.30;99.90;;;;;;4916199;29;20222;-73
2021/01/19 18:24:13;;;;;;;1.10;1.10;;;5.40;99.90;;;;;;4915706;29;20211;-73
2021/01/19 18:26:42;;;;;;;1.20;1.20;;;5.40;99.90;;;;;;4915429;29;20703;-72
2021/01/19 18:29:12;;;;;;;1.10;1.10;;;5.40;99.90;;;;;;4913908;29;20191;-74
2021/01/19 18:31:56;;;;;;;1.20;1.20;;;5.50;99.90;;;;;;4913830;29;20223;-72
2021/01/19 18:34:26;;;;;;;1.00;1.00;;;5.60;99.90;;;;;;4907939;29;20718;-72
2021/01/19 18:36:58;;;;;;;1.20;1.20;;;5.60;99.90;;;;;;4907422;29;20583;-72
2021/01/19 18:39:32;;;;;;;1.10;1.10;;;5.70;99.90;;;;;;4904884;29;20223;-72
2021/01/19 18:42:00;;;;;;;1.03;1.03;;;5.70;99.90;;;;;;4911164;29;20254;-72
2021/01/19 18:44:29;;;;;;;1.07;1.07;;;5.70;99.90;;;;;;4913867;29;20206;-72
2021/01/19 18:46:59;;;;;;;1.10;1.10;;;5.70;99.90;;;;;;4911867;29;20257;-72
2021/01/19 18:49:28;;;;;;;1.20;1.20;;;5.80;99.90;;;;;;4914110;29;20203;-72
2021/01/19 18:51:56;;;;;;;1.20;1.20;;;5.80;99.90;;;;;;4913863;29;20230;-71
2021/01/19 18:54:25;;;;;;;1.00;1.00;;;5.70;99.90;;;;;;4915151;29;20633;-73
2021/01/19 18:56:54;;;;;;;1.20;1.20;;;5.80;99.90;;;;;;4915542;29;20731;-72
2021/01/19 18:59:22;;;;;;;1.00;1.00;;;5.80;99.90;;;;;;4916465;29;20242;-71
2021/01/19 19:01:52;;;;;;;1.10;1.10;;;5.90;99.90;;;;;;4914068;29;20233;-71
2021/01/19 19:04:20;;;;;;;1.10;1.10;;;5.90;99.90;;;;;;4915721;29;20224;-71
2021/01/19 19:06:48;;;;;;;1.00;1.00;;;5.90;99.90;;;;;;4914463;29;20604;-71
2021/01/19 19:09:16;;;;;;;1.10;1.10;;;6.00;99.90;;;;;;4913171;29;20725;-72
2021/01/19 19:11:44;;;;;;;1.17;1.17;;;6.00;99.90;;;;;;4911707;29;20678;-71
2021/01/19 19:14:18;;;;;;;1.00;1.00;;;6.10;99.90;;;;;;4912544;29;20211;-70
2021/01/19 19:16:46;;;;;;;1.10;1.10;;;6.10;99.90;;;;;;4915820;23;20230;-79
2021/01/19 19:19:18;;;;;;;1.00;1.00;;;6.10;99.90;;;;;;4894727;29;20692;-79
2021/01/19 19:21:48;;;;;;;0.90;0.90;;;6.10;99.90;;;;;;4897577;29;20282;-80
2021/01/19 19:24:17;;;;;;;1.03;1.03;;;6.10;99.90;;;;;;4897437;29;20207;-79
2021/01/19 19:26:46;;;;;;;1.20;1.20;;;6.20;99.90;;;;;;4906295;29;20286;-81
2021/01/19 19:29:16;;;;;;;1.00;1.00;;;6.20;99.90;;;;;;4910303;29;20235;-79
2021/01/19 19:31:48;;;;;;;1.10;1.10;;;6.30;99.90;;;;;;4906627;29;20212;-80
2021/01/19 19:34:35;;;;;;;1.10;1.10;;;6.30;99.90;;;;;;4908657;29;20668;-79
2021/01/19 19:37:06;;;;;;;1.00;1.00;;;6.30;99.90;;;;;;4905946;29;20779;-79
2021/01/19 19:39:35;;;;;;;0.90;0.90;;;6.30;99.90;;;;;;4906877;29;20286;-79
2021/01/19 19:42:05;;;;;;;1.20;1.20;;;6.30;99.90;;;;;;4904212;29;20238;-79
2021/01/19 19:44:34;;;;;;;1.00;1.00;;;6.30;99.90;;;;;;4908090;29;20281;-79
2021/01/19 19:47:04;;;;;;;1.00;1.00;;;6.20;99.90;;;;;;4901504;29;20235;-81
2021/01/19 19:49:36;;;;;;;1.10;1.10;;;6.20;99.90;;;;;;4903780;29;20208;-80
2021/01/19 19:52:04;;;;;;;1.00;1.00;;;6.10;99.90;;;;;;4904075;29;20200;-81
2021/01/19 19:54:33;;;;;;;1.00;1.00;;;6.20;99.90;;;;;;4905291;29;20212;-81
2021/01/19 19:57:02;;;;;;;0.90;0.90;;;6.20;99.90;;;;;;4908678;29;20227;-80
2021/01/19 19:59:32;;;;;;;1.00;1.00;;;6.20;99.90;;;;;;4906189;29;20227;-79
2021/01/19 20:02:01;;;;;;;1.10;1.10;;;6.20;99.90;;;;;;4902394;29;20218;-79
2021/01/19 20:04:32;;;;;;;1.17;1.17;;;6.30;99.90;;;;;;4902824;29;20594;-81
2021/01/19 20:07:05;;;;;;;1.00;1.00;;;6.30;99.90;;;;;;4907167;29;20238;-79
2021/01/19 20:09:38;;;;;;;1.10;1.10;;;6.40;99.90;;;;;;4909899;29;20227;-81
2021/01/19 20:12:07;;;;;;;1.00;1.00;;;6.40;99.90;;;;;;4912058;29;20221;-81
2021/01/19 20:14:36;;;;;;;1.07;1.07;;;6.50;99.90;;;;;;4915634;29;20672;-80
2021/01/19 20:17:05;;;;;;;1.13;1.13;;;6.50;99.90;;;;;;4913334;29;20227;-79
2021/01/19 20:19:33;;;;;;;1.10;1.10;;;6.50;99.90;;;;;;4911685;29;20266;-79
2021/01/19 20:22:01;;;;;;;1.00;1.00;;;6.60;99.90;;;;;;4908486;29;20274;-78
2021/01/19 20:24:30;;;;;;;1.00;1.00;;;6.60;99.90;;;;;;4895038;29;20271;-79
2021/01/19 20:26:57;;;;;;;1.10;1.10;;;6.60;99.90;;;;;;4909614;29;20222;-80
2021/01/19 20:29:26;;;;;;;1.00;1.00;;;6.70;99.90;;;;;;4918806;29;20203;-80
2021/01/19 20:31:58;;;;;;;0.90;0.90;;;6.70;99.90;;;;;;4915425;29;20301;-79
2021/01/19 20:34:27;;;;;;;1.10;1.10;;;6.70;99.90;;;;;;4913126;29;20204;-81
2021/01/19 20:36:59;;;;;;;1.00;1.00;;;6.80;99.90;;;;;;4910881;29;20656;-81
2021/01/19 20:39:27;;;;;;;1.00;1.00;;;6.80;99.90;;;;;;4909346;29;20219;-82
2021/01/19 20:41:59;;;;;;;1.10;1.10;;;6.80;99.90;;;;;;4903214;29;20212;-81
2021/01/19 20:44:27;;;;;;;1.10;1.10;;;6.80;99.90;;;;;;4904218;29;20728;-81
2021/01/19 20:47:01;;;;;;;1.00;1.00;;;6.80;99.90;;;;;;4904483;29;20238;-81
2021/01/19 20:49:32;;;;;;;1.10;1.10;;;6.90;99.90;;;;;;4904448;29;20596;-80
2021/01/19 20:52:00;;;;;;;1.00;1.00;;;6.90;99.90;;;;;;4904217;29;20203;-81
2021/01/19 20:54:29;;;;;;;1.00;1.00;;;6.90;99.90;;;;;;4908479;29;20505;-79
2021/01/19 20:56:59;;;;;;;1.10;1.10;;;6.80;99.90;;;;;;4906717;29;20227;-79
2021/01/19 20:59:27;;;;;;;1.00;1.00;;;6.80;99.90;;;;;;4909568;29;20219;-78
2021/01/19 21:01:54;;;;;;;1.00;1.00;;;6.80;99.90;;;;;;4909484;29;20204;-78
2021/01/19 21:04:22;;;;;;;0.90;0.90;;;6.80;99.90;;;;;;4901087;29;20215;-78
2021/01/19 21:06:49;;;;;;;1.03;1.03;;;6.80;99.90;;;;;;4901418;29;20219;-78
2021/01/19 21:09:15;;;;;;;0.90;0.90;;;6.80;99.90;;;;;;4899315;29;20192;-77
2021/01/19 21:11:46;;;;;;;1.00;1.00;;;6.80;99.90;;;;;;4899930;29;20650;-78
2021/01/19 21:14:13;;;;;;;1.00;1.00;;;6.80;99.90;;;;;;4898425;29;20207;-79
2021/01/19 21:16:41;;;;;;;1.03;1.03;;;6.80;99.90;;;;;;4895713;29;20234;-79
2021/01/19 21:19:08;;;;;;;1.00;1.00;;;6.80;99.90;;;;;;4893559;29;20580;-79
2021/01/19 21:21:35;;;;;;;1.00;1.00;;;6.80;99.90;;;;;;4892609;29;20204;-79
2021/01/19 21:24:02;;;;;;;1.00;1.00;;;6.80;99.90;;;;;;4903484;29;20207;-79
2021/01/19 21:26:29;;;;;;;1.00;1.00;;;6.80;99.90;;;;;;4902606;29;20716;-79
2021/01/19 21:28:56;;;;;;;1.00;1.00;;;6.80;99.90;;;;;;4901664;29;20204;-79
2021/01/19 21:31:22;;;;;;;0.90;0.90;;;6.80;99.90;;;;;;4901545;29;20207;-79
2021/01/19 21:33:50;;;;;;;1.05;1.05;;;6.70;99.90;;;;;;4902371;29;20214;-79
2021/01/19 21:36:20;;;;;;;1.10;1.10;;;6.70;99.90;;;;;;4902456;29;20223;-79
2021/01/19 21:38:47;;;;;;;1.10;1.10;;;6.70;99.90;;;;;;4901673;29;20577;-80
2021/01/19 21:41:14;;;;;;;1.00;1.00;;;6.70;99.90;;;;;;4902672;29;20207;-80
2021/01/19 21:43:41;;;;;;;1.00;1.00;;;6.70;99.90;;;;;;4902173;29;20271;-79
2021/01/19 21:46:08;;;;;;;1.10;1.10;;;6.70;99.90;;;;;;4902363;29;20235;-79
2021/01/19 21:48:35;;;;;;;1.17;1.17;;;6.70;99.90;;;;;;4901243;29;20236;-80
2021/01/19 21:51:03;;;;;;;1.10;1.10;;;6.60;99.90;;;;;;4901841;29;20208;-79
2021/01/19 21:53:30;;;;;;;1.00;1.00;;;6.70;99.90;;;;;;4900946;29;20232;-79
2021/01/19 21:55:57;;;;;;;1.00;1.00;;;6.60;99.90;;;;;;4902163;29;20250;-80
2021/01/19 21:58:25;;;;;;;1.03;1.03;;;6.60;99.90;;;;;;4901558;29;20255;-79
